sensor_id;sensor_type;location;lat;lon;timestamp;P1;durP1;ratioP1;P2;durP2;ratioP2
72645;SDS011;60687;53.876;10.674;2023-05-15T00:02:54;9.35;;;4.97;;
72645;SDS011;60687;53.876;10.674;2023-05-15T00:12:58;9.77;;;5.37;;
72645;SDS011;60687;53.876;10.674;2023-05-15T00:23:00;10.43;;;5.53;;
72645;SDS011;60687;53.876;10.674;2023-05-15T00:33:04;11.15;;;5.57;;
72645;SDS011;60687;53.876;10.674;2023-05-15T00:43:06;9.57;;;5.05;;
72645;SDS011;60687;53.876;10.674;2023-05-15T00:53:12;13.60;;;5.73;;
72645;SDS011;60687;53.876;10.674;2023-05-15T01:03:15;10.00;;;4.93;;
72645;SDS011;60687;53.876;10.674;2023-05-15T01:13:20;12.95;;;5.75;;
72645;SDS011;60687;53.876;10.674;2023-05-15T01:23:25;9.43;;;5.20;;
72645;SDS011;60687;53.876;10.674;2023-05-15T01:33:44;9.67;;;5.57;;
72645;SDS011;60687;53.876;10.674;2023-05-15T01:43:51;9.05;;;5.30;;
72645;SDS011;60687;53.876;10.674;2023-05-15T01:53:58;13.43;;;6.07;;
72645;SDS011;60687;53.876;10.674;2023-05-15T02:04:02;11.30;;;6.47;;
72645;SDS011;60687;53.876;10.674;2023-05-15T02:14:06;10.25;;;5.65;;
72645;SDS011;60687;53.876;10.674;2023-05-15T02:24:10;9.85;;;6.03;;
72645;SDS011;60687;53.876;10.674;2023-05-15T02:34:16;9.43;;;5.33;;
72645;SDS011;60687;53.876;10.674;2023-05-15T02:44:24;10.17;;;5.77;;
72645;SDS011;60687;53.876;10.674;2023-05-15T02:54:28;11.57;;;5.80;;
72645;SDS011;60687;53.876;10.674;2023-05-15T03:04:31;10.70;;;5.97;;
72645;SDS011;60687;53.876;10.674;2023-05-15T03:14:34;9.20;;;5.17;;
72645;SDS011;60687;53.876;10.674;2023-05-15T03:24:37;8.80;;;5.13;;
72645;SDS011;60687;53.876;10.674;2023-05-15T03:34:40;11.37;;;5.60;;
72645;SDS011;60687;53.876;10.674;2023-05-15T03:44:42;10.00;;;5.67;;
72645;SDS011;60687;53.876;10.674;2023-05-15T03:54:48;12.95;;;5.90;;
72645;SDS011;60687;53.876;10.674;2023-05-15T04:04:52;9.65;;;5.63;;
72645;SDS011;60687;53.876;10.674;2023-05-15T04:14:57;12.67;;;6.30;;
72645;SDS011;60687;53.876;10.674;2023-05-15T04:25:00;10.90;;;6.20;;
72645;SDS011;60687;53.876;10.674;2023-05-15T04:35:04;10.73;;;5.28;;
72645;SDS011;60687;53.876;10.674;2023-05-15T04:45:09;9.77;;;5.53;;
72645;SDS011;60687;53.876;10.674;2023-05-15T04:55:13;10.80;;;5.50;;
72645;SDS011;60687;53.876;10.674;2023-05-15T05:05:15;10.95;;;5.53;;
72645;SDS011;60687;53.876;10.674;2023-05-15T05:15:19;10.27;;;5.77;;
72645;SDS011;60687;53.876;10.674;2023-05-15T05:25:21;12.93;;;7.10;;
72645;SDS011;60687;53.876;10.674;2023-05-15T05:35:25;11.85;;;7.40;;
72645;SDS011;60687;53.876;10.674;2023-05-15T05:45:28;12.05;;;6.93;;
72645;SDS011;60687;53.876;10.674;2023-05-15T05:55:32;10.93;;;6.57;;
72645;SDS011;60687;53.876;10.674;2023-05-15T06:05:34;12.87;;;6.60;;
72645;SDS011;60687;53.876;10.674;2023-05-15T06:15:38;12.38;;;7.38;;
72645;SDS011;60687;53.876;10.674;2023-05-15T06:25:40;10.87;;;6.93;;
72645;SDS011;60687;53.876;10.674;2023-05-15T06:35:44;13.93;;;6.57;;
72645;SDS011;60687;53.876;10.674;2023-05-15T06:45:48;10.35;;;5.30;;
72645;SDS011;60687;53.876;10.674;2023-05-15T06:55:51;11.10;;;5.70;;
72645;SDS011;60687;53.876;10.674;2023-05-15T07:05:53;11.20;;;5.60;;
72645;SDS011;60687;53.876;10.674;2023-05-15T07:15:58;11.20;;;5.75;;
72645;SDS011;60687;53.876;10.674;2023-05-15T07:26:00;10.95;;;5.15;;
72645;SDS011;60687;53.876;10.674;2023-05-15T07:36:04;11.13;;;5.93;;
72645;SDS011;60687;53.876;10.674;2023-05-15T07:46:07;10.27;;;5.20;;
72645;SDS011;60687;53.876;10.674;2023-05-15T07:56:10;9.23;;;4.63;;
72645;SDS011;60687;53.876;10.674;2023-05-15T08:06:12;9.67;;;4.30;;
72645;SDS011;60687;53.876;10.674;2023-05-15T08:16:17;8.50;;;4.13;;
72645;SDS011;60687;53.876;10.674;2023-05-15T08:26:19;9.68;;;4.60;;
72645;SDS011;60687;53.876;10.674;2023-05-15T08:36:23;9.67;;;4.23;;
72645;SDS011;60687;53.876;10.674;2023-05-15T08:46:25;8.83;;;4.17;;
72645;SDS011;60687;53.876;10.674;2023-05-15T08:56:30;10.07;;;5.80;;
72645;SDS011;60687;53.876;10.674;2023-05-15T09:06:36;10.27;;;4.30;;
72645;SDS011;60687;53.876;10.674;2023-05-15T09:16:41;10.07;;;3.93;;
72645;SDS011;60687;53.876;10.674;2023-05-15T09:26:44;7.60;;;3.70;;
72645;SDS011;60687;53.876;10.674;2023-05-15T09:36:48;7.28;;;3.50;;
72645;SDS011;60687;53.876;10.674;2023-05-15T09:46:51;8.80;;;2.97;;
72645;SDS011;60687;53.876;10.674;2023-05-15T09:56:55;7.77;;;3.17;;
72645;SDS011;60687;53.876;10.674;2023-05-15T10:06:57;7.53;;;3.50;;
72645;SDS011;60687;53.876;10.674;2023-05-15T10:17:01;8.57;;;3.33;;
72645;SDS011;60687;53.876;10.674;2023-05-15T10:27:04;8.60;;;3.10;;
72645;SDS011;60687;53.876;10.674;2023-05-15T10:37:17;7.87;;;3.87;;
72645;SDS011;60687;53.876;10.674;2023-05-15T10:47:20;7.10;;;3.23;;
72645;SDS011;60687;53.876;10.674;2023-05-15T10:57:24;7.30;;;3.30;;
72645;SDS011;60687;53.876;10.674;2023-05-15T11:07:29;7.60;;;3.40;;
72645;SDS011;60687;53.876;10.674;2023-05-15T11:17:32;7.60;;;3.23;;
72645;SDS011;60687;53.876;10.674;2023-05-15T11:27:37;9.90;;;3.80;;
72645;SDS011;60687;53.876;10.674;2023-05-15T11:37:42;8.30;;;4.17;;
72645;SDS011;60687;53.876;10.674;2023-05-15T11:47:46;8.80;;;3.70;;
72645;SDS011;60687;53.876;10.674;2023-05-15T11:57:50;7.20;;;2.80;;
72645;SDS011;60687;53.876;10.674;2023-05-15T12:07:52;8.20;;;3.40;;
72645;SDS011;60687;53.876;10.674;2023-05-15T12:17:56;6.93;;;2.57;;
72645;SDS011;60687;53.876;10.674;2023-05-15T12:27:58;8.07;;;3.28;;
72645;SDS011;60687;53.876;10.674;2023-05-15T12:38:03;7.47;;;3.77;;
72645;SDS011;60687;53.876;10.674;2023-05-15T12:48:06;9.63;;;4.60;;
72645;SDS011;60687;53.876;10.674;2023-05-15T12:58:10;9.70;;;4.80;;
72645;SDS011;60687;53.876;10.674;2023-05-15T13:08:14;11.77;;;4.67;;
72645;SDS011;60687;53.876;10.674;2023-05-15T13:18:19;8.85;;;4.80;;
72645;SDS011;60687;53.876;10.674;2023-05-15T13:28:21;10.03;;;4.30;;
72645;SDS011;60687;53.876;10.674;2023-05-15T13:38:25;8.50;;;4.57;;
72645;SDS011;60687;53.876;10.674;2023-05-15T13:48:27;7.43;;;3.20;;
72645;SDS011;60687;53.876;10.674;2023-05-15T13:58:31;7.43;;;3.28;;
72645;SDS011;60687;53.876;10.674;2023-05-15T14:08:34;7.77;;;2.93;;
72645;SDS011;60687;53.876;10.674;2023-05-15T14:18:37;9.40;;;3.00;;
72645;SDS011;60687;53.876;10.674;2023-05-15T14:28:40;7.97;;;3.45;;
72645;SDS011;60687;53.876;10.674;2023-05-15T14:38:43;7.50;;;2.70;;
72645;SDS011;60687;53.876;10.674;2023-05-15T14:48:47;7.30;;;3.00;;
72645;SDS011;60687;53.876;10.674;2023-05-15T14:58:50;6.75;;;2.75;;
72645;SDS011;60687;53.876;10.674;2023-05-15T15:08:53;6.87;;;2.90;;
72645;SDS011;60687;53.876;10.674;2023-05-15T15:18:57;7.67;;;3.40;;
72645;SDS011;60687;53.876;10.674;2023-05-15T15:28:59;7.97;;;3.80;;
72645;SDS011;60687;53.876;10.674;2023-05-15T15:39:03;8.13;;;3.50;;
72645;SDS011;60687;53.876;10.674;2023-05-15T15:49:06;7.50;;;3.60;;
72645;SDS011;60687;53.876;10.674;2023-05-15T15:59:09;7.87;;;3.50;;
72645;SDS011;60687;53.876;10.674;2023-05-15T16:09:12;14.15;;;5.90;;
72645;SDS011;60687;53.876;10.674;2023-05-15T16:19:16;6.33;;;3.00;;
72645;SDS011;60687;53.876;10.674;2023-05-15T16:29:18;7.97;;;2.97;;
72645;SDS011;60687;53.876;10.674;2023-05-15T16:39:22;9.00;;;3.90;;
72645;SDS011;60687;53.876;10.674;2023-05-15T16:49:25;9.90;;;4.73;;
72645;SDS011;60687;53.876;10.674;2023-05-15T16:59:29;11.27;;;6.50;;
72645;SDS011;60687;53.876;10.674;2023-05-15T17:09:31;10.30;;;5.03;;
72645;SDS011;60687;53.876;10.674;2023-05-15T17:19:35;9.15;;;5.05;;
72645;SDS011;60687;53.876;10.674;2023-05-15T17:29:38;8.77;;;4.40;;
72645;SDS011;60687;53.876;10.674;2023-05-15T17:39:41;9.20;;;4.30;;
72645;SDS011;60687;53.876;10.674;2023-05-15T17:49:47;10.98;;;5.68;;
72645;SDS011;60687;53.876;10.674;2023-05-15T17:59:50;9.07;;;4.80;;
72645;SDS011;60687;53.876;10.674;2023-05-15T18:09:54;8.70;;;4.93;;
72645;SDS011;60687;53.876;10.674;2023-05-15T18:19:57;11.32;;;6.00;;
72645;SDS011;60687;53.876;10.674;2023-05-15T18:30:00;8.60;;;5.43;;
72645;SDS011;60687;53.876;10.674;2023-05-15T18:40:15;10.47;;;5.73;;
72645;SDS011;60687;53.876;10.674;2023-05-15T18:50:17;9.53;;;5.13;;
72645;SDS011;60687;53.876;10.674;2023-05-15T19:00:21;10.52;;;5.05;;
72645;SDS011;60687;53.876;10.674;2023-05-15T19:10:24;9.37;;;4.73;;
72645;SDS011;60687;53.876;10.674;2023-05-15T19:20:29;9.10;;;4.70;;
72645;SDS011;60687;53.876;10.674;2023-05-15T19:30:32;9.18;;;4.85;;
72645;SDS011;60687;53.876;10.674;2023-05-15T19:40:36;8.90;;;4.57;;
72645;SDS011;60687;53.876;10.674;2023-05-15T19:50:38;9.10;;;5.10;;
72645;SDS011;60687;53.876;10.674;2023-05-15T20:00:42;9.07;;;4.60;;
72645;SDS011;60687;53.876;10.674;2023-05-15T20:10:49;7.97;;;3.63;;
72645;SDS011;60687;53.876;10.674;2023-05-15T20:20:55;8.30;;;3.27;;
72645;SDS011;60687;53.876;10.674;2023-05-15T20:30:58;7.47;;;3.00;;
72645;SDS011;60687;53.876;10.674;2023-05-15T20:41:02;8.00;;;3.38;;
72645;SDS011;60687;53.876;10.674;2023-05-15T20:51:04;10.20;;;3.97;;
72645;SDS011;60687;53.876;10.674;2023-05-15T21:01:08;9.00;;;3.70;;
72645;SDS011;60687;53.876;10.674;2023-05-15T21:11:10;8.93;;;4.18;;
72645;SDS011;60687;53.876;10.674;2023-05-15T21:21:13;10.27;;;3.50;;
72645;SDS011;60687;53.876;10.674;2023-05-15T21:31:16;9.57;;;3.63;;
72645;SDS011;60687;53.876;10.674;2023-05-15T21:41:19;9.75;;;3.95;;
72645;SDS011;60687;53.876;10.674;2023-05-15T21:51:21;9.07;;;4.05;;
72645;SDS011;60687;53.876;10.674;2023-05-15T22:01:25;8.83;;;3.80;;
72645;SDS011;60687;53.876;10.674;2023-05-15T22:11:27;8.87;;;4.00;;
72645;SDS011;60687;53.876;10.674;2023-05-15T22:21:31;11.68;;;4.70;;
72645;SDS011;60687;53.876;10.674;2023-05-15T22:31:33;8.93;;;4.40;;
72645;SDS011;60687;53.876;10.674;2023-05-15T22:41:37;8.87;;;3.90;;
72645;SDS011;60687;53.876;10.674;2023-05-15T22:51:40;9.60;;;4.72;;
72645;SDS011;60687;53.876;10.674;2023-05-15T23:01:45;8.63;;;4.07;;
72645;SDS011;60687;53.876;10.674;2023-05-15T23:11:48;10.00;;;4.80;;
72645;SDS011;60687;53.876;10.674;2023-05-15T23:21:52;9.88;;;5.10;;
72645;SDS011;60687;53.876;10.674;2023-05-15T23:31:55;8.90;;;4.03;;
72645;SDS011;60687;53.876;10.674;2023-05-15T23:41:58;11.13;;;4.10;;
72645;SDS011;60687;53.876;10.674;2023-05-15T23:52:01;8.27;;;3.10;;
